sensor_id;sensor_type;location;lat;lon;timestamp;P1;durP1;ratioP1;P2;durP2;ratioP2
3791;SDS011;1911;53.768;11.474;2022-09-09T00:03:57;23.00;;;17.60;;
3791;SDS011;1911;53.768;11.474;2022-09-09T00:06:43;21.63;;;16.43;;
3791;SDS011;1911;53.768;11.474;2022-09-09T00:09:16;24.93;;;18.80;;
3791;SDS011;1911;53.768;11.474;2022-09-09T00:11:52;22.37;;;15.50;;
3791;SDS011;1911;53.768;11.474;2022-09-09T00:19:58;27.43;;;19.63;;
3791;SDS011;1911;53.768;11.474;2022-09-09T00:22:29;29.90;;;21.10;;
3791;SDS011;1911;53.768;11.474;2022-09-09T00:25:31;31.93;;;21.13;;
3791;SDS011;1911;53.768;11.474;2022-09-09T00:27:53;34.40;;;24.10;;
3791;SDS011;1911;53.768;11.474;2022-09-09T00:30:24;33.97;;;23.77;;
3791;SDS011;1911;53.768;11.474;2022-09-09T00:32:59;33.73;;;22.30;;
3791;SDS011;1911;53.768;11.474;2022-09-09T00:35:49;35.00;;;23.53;;
3791;SDS011;1911;53.768;11.474;2022-09-09T00:44:03;39.97;;;23.13;;
3791;SDS011;1911;53.768;11.474;2022-09-09T00:50:11;32.70;;;22.67;;
3791;SDS011;1911;53.768;11.474;2022-09-09T01:01:59;32.20;;;22.80;;
3791;SDS011;1911;53.768;11.474;2022-09-09T01:04:31;31.20;;;22.43;;
3791;SDS011;1911;53.768;11.474;2022-09-09T01:07:07;31.13;;;21.37;;
3791;SDS011;1911;53.768;11.474;2022-09-09T01:28:03;31.60;;;21.60;;
3791;SDS011;1911;53.768;11.474;2022-09-09T01:30:34;32.50;;;20.00;;
3791;SDS011;1911;53.768;11.474;2022-09-09T01:33:03;29.87;;;21.67;;
3791;SDS011;1911;53.768;11.474;2022-09-09T01:35:36;30.17;;;21.93;;
3791;SDS011;1911;53.768;11.474;2022-09-09T01:38:12;34.83;;;22.23;;
3791;SDS011;1911;53.768;11.474;2022-09-09T01:40:39;31.20;;;22.10;;
3791;SDS011;1911;53.768;11.474;2022-09-09T01:43:04;31.87;;;23.23;;
3791;SDS011;1911;53.768;11.474;2022-09-09T01:45:31;30.50;;;21.33;;
3791;SDS011;1911;53.768;11.474;2022-09-09T01:47:58;35.53;;;22.47;;
3791;SDS011;1911;53.768;11.474;2022-09-09T01:50:25;30.80;;;20.77;;
3791;SDS011;1911;53.768;11.474;2022-09-09T01:52:52;32.03;;;21.93;;
3791;SDS011;1911;53.768;11.474;2022-09-09T01:55:26;31.20;;;21.00;;
3791;SDS011;1911;53.768;11.474;2022-09-09T01:58:06;31.00;;;20.63;;
3791;SDS011;1911;53.768;11.474;2022-09-09T02:00:37;31.30;;;20.70;;
3791;SDS011;1911;53.768;11.474;2022-09-09T02:03:09;28.30;;;19.70;;
3791;SDS011;1911;53.768;11.474;2022-09-09T02:05:47;31.13;;;20.40;;
3791;SDS011;1911;53.768;11.474;2022-09-09T02:08:17;32.90;;;20.80;;
3791;SDS011;1911;53.768;11.474;2022-09-09T02:11:08;29.77;;;21.10;;
3791;SDS011;1911;53.768;11.474;2022-09-09T02:13:40;28.63;;;22.20;;
3791;SDS011;1911;53.768;11.474;2022-09-09T02:16:08;32.47;;;21.50;;
3791;SDS011;1911;53.768;11.474;2022-09-09T02:18:40;31.00;;;22.20;;
3791;SDS011;1911;53.768;11.474;2022-09-09T02:21:12;35.47;;;25.00;;
3791;SDS011;1911;53.768;11.474;2022-09-09T02:23:39;35.00;;;23.00;;
3791;SDS011;1911;53.768;11.474;2022-09-09T02:26:06;35.07;;;21.37;;
3791;SDS011;1911;53.768;11.474;2022-09-09T02:28:35;32.33;;;21.40;;
3791;SDS011;1911;53.768;11.474;2022-09-09T02:31:02;33.40;;;22.10;;
3791;SDS011;1911;53.768;11.474;2022-09-09T02:33:30;36.67;;;23.50;;
3791;SDS011;1911;53.768;11.474;2022-09-09T02:36:01;38.80;;;23.03;;
3791;SDS011;1911;53.768;11.474;2022-09-09T02:38:29;30.70;;;22.07;;
3791;SDS011;1911;53.768;11.474;2022-09-09T02:41:00;33.60;;;22.50;;
3791;SDS011;1911;53.768;11.474;2022-09-09T02:43:30;33.60;;;23.33;;
3791;SDS011;1911;53.768;11.474;2022-09-09T02:48:48;46.07;;;25.50;;
3791;SDS011;1911;53.768;11.474;2022-09-09T02:51:18;39.07;;;23.53;;
3791;SDS011;1911;53.768;11.474;2022-09-09T02:53:48;40.90;;;25.47;;
3791;SDS011;1911;53.768;11.474;2022-09-09T02:56:36;41.23;;;24.27;;
3791;SDS011;1911;53.768;11.474;2022-09-09T02:59:06;53.63;;;28.93;;
3791;SDS011;1911;53.768;11.474;2022-09-09T03:01:32;44.33;;;23.67;;
3791;SDS011;1911;53.768;11.474;2022-09-09T03:03:58;42.57;;;20.70;;
3791;SDS011;1911;53.768;11.474;2022-09-09T03:06:23;48.40;;;22.90;;
3791;SDS011;1911;53.768;11.474;2022-09-09T03:08:49;42.27;;;21.40;;
3791;SDS011;1911;53.768;11.474;2022-09-09T03:11:15;44.63;;;21.37;;
3791;SDS011;1911;53.768;11.474;2022-09-09T03:13:41;37.70;;;20.13;;
3791;SDS011;1911;53.768;11.474;2022-09-09T03:16:07;55.47;;;24.80;;
3791;SDS011;1911;53.768;11.474;2022-09-09T03:18:33;58.83;;;25.77;;
3791;SDS011;1911;53.768;11.474;2022-09-09T03:20:59;63.70;;;27.40;;
3791;SDS011;1911;53.768;11.474;2022-09-09T03:23:25;50.00;;;22.40;;
3791;SDS011;1911;53.768;11.474;2022-09-09T03:25:50;54.23;;;24.60;;
3791;SDS011;1911;53.768;11.474;2022-09-09T03:28:17;47.10;;;21.60;;
3791;SDS011;1911;53.768;11.474;2022-09-09T03:30:43;46.77;;;25.50;;
3791;SDS011;1911;53.768;11.474;2022-09-09T03:33:09;56.97;;;24.87;;
3791;SDS011;1911;53.768;11.474;2022-09-09T03:35:34;46.10;;;23.43;;
3791;SDS011;1911;53.768;11.474;2022-09-09T03:38:00;48.63;;;23.83;;
3791;SDS011;1911;53.768;11.474;2022-09-09T03:40:26;46.13;;;23.50;;
3791;SDS011;1911;53.768;11.474;2022-09-09T03:42:52;43.93;;;21.40;;
3791;SDS011;1911;53.768;11.474;2022-09-09T03:45:17;53.03;;;24.37;;
3791;SDS011;1911;53.768;11.474;2022-09-09T03:47:43;67.80;;;22.83;;
3791;SDS011;1911;53.768;11.474;2022-09-09T03:50:09;64.60;;;24.90;;
3791;SDS011;1911;53.768;11.474;2022-09-09T03:52:36;155.23;;;28.57;;
3791;SDS011;1911;53.768;11.474;2022-09-09T03:55:03;110.63;;;27.80;;
3791;SDS011;1911;53.768;11.474;2022-09-09T03:57:29;175.17;;;32.60;;
3791;SDS011;1911;53.768;11.474;2022-09-09T03:59:55;271.70;;;35.87;;
3791;SDS011;1911;53.768;11.474;2022-09-09T04:02:21;208.57;;;33.93;;
3791;SDS011;1911;53.768;11.474;2022-09-09T04:04:47;240.63;;;36.47;;
3791;SDS011;1911;53.768;11.474;2022-09-09T04:07:12;322.90;;;44.23;;
3791;SDS011;1911;53.768;11.474;2022-09-09T04:09:38;106.37;;;28.40;;
3791;SDS011;1911;53.768;11.474;2022-09-09T04:12:04;116.60;;;31.47;;
3791;SDS011;1911;53.768;11.474;2022-09-09T04:14:31;80.90;;;27.93;;
3791;SDS011;1911;53.768;11.474;2022-09-09T04:16:57;90.57;;;29.70;;
3791;SDS011;1911;53.768;11.474;2022-09-09T04:19:24;88.70;;;28.03;;
3791;SDS011;1911;53.768;11.474;2022-09-09T04:21:50;84.30;;;31.17;;
3791;SDS011;1911;53.768;11.474;2022-09-09T04:24:16;70.60;;;28.23;;
3791;SDS011;1911;53.768;11.474;2022-09-09T04:26:42;69.33;;;27.60;;
3791;SDS011;1911;53.768;11.474;2022-09-09T04:29:08;79.60;;;29.17;;
3791;SDS011;1911;53.768;11.474;2022-09-09T04:31:34;63.63;;;27.17;;
3791;SDS011;1911;53.768;11.474;2022-09-09T04:34:00;78.07;;;30.87;;
3791;SDS011;1911;53.768;11.474;2022-09-09T04:36:30;66.43;;;28.77;;
3791;SDS011;1911;53.768;11.474;2022-09-09T04:38:57;72.27;;;31.23;;
3791;SDS011;1911;53.768;11.474;2022-09-09T04:41:22;79.90;;;30.40;;
3791;SDS011;1911;53.768;11.474;2022-09-09T04:43:48;81.87;;;31.80;;
3791;SDS011;1911;53.768;11.474;2022-09-09T04:46:14;58.13;;;26.57;;
3791;SDS011;1911;53.768;11.474;2022-09-09T04:48:43;59.70;;;26.40;;
3791;SDS011;1911;53.768;11.474;2022-09-09T04:51:10;75.37;;;28.90;;
3791;SDS011;1911;53.768;11.474;2022-09-09T04:53:38;57.23;;;28.50;;
3791;SDS011;1911;53.768;11.474;2022-09-09T04:56:06;62.97;;;29.00;;
3791;SDS011;1911;53.768;11.474;2022-09-09T04:58:37;51.17;;;26.80;;
3791;SDS011;1911;53.768;11.474;2022-09-09T05:01:04;46.87;;;24.23;;
3791;SDS011;1911;53.768;11.474;2022-09-09T05:03:31;38.90;;;24.07;;
3791;SDS011;1911;53.768;11.474;2022-09-09T05:06:03;44.10;;;26.53;;
3791;SDS011;1911;53.768;11.474;2022-09-09T05:08:34;39.53;;;24.60;;
3791;SDS011;1911;53.768;11.474;2022-09-09T05:11:04;50.63;;;25.60;;
3791;SDS011;1911;53.768;11.474;2022-09-09T05:13:50;40.30;;;24.00;;
3791;SDS011;1911;53.768;11.474;2022-09-09T05:16:17;38.20;;;24.17;;
3791;SDS011;1911;53.768;11.474;2022-09-09T05:18:43;45.20;;;26.53;;
3791;SDS011;1911;53.768;11.474;2022-09-09T05:21:11;33.23;;;22.87;;
3791;SDS011;1911;53.768;11.474;2022-09-09T05:23:38;43.97;;;25.47;;
3791;SDS011;1911;53.768;11.474;2022-09-09T05:26:03;55.70;;;27.73;;
3791;SDS011;1911;53.768;11.474;2022-09-09T05:28:30;52.90;;;27.63;;
3791;SDS011;1911;53.768;11.474;2022-09-09T05:30:59;52.70;;;28.77;;
3791;SDS011;1911;53.768;11.474;2022-09-09T05:33:32;50.87;;;26.27;;
3791;SDS011;1911;53.768;11.474;2022-09-09T05:36:00;51.77;;;27.37;;
3791;SDS011;1911;53.768;11.474;2022-09-09T05:38:27;57.23;;;28.93;;
3791;SDS011;1911;53.768;11.474;2022-09-09T05:40:54;52.20;;;27.63;;
3791;SDS011;1911;53.768;11.474;2022-09-09T05:43:21;53.73;;;27.40;;
3791;SDS011;1911;53.768;11.474;2022-09-09T05:45:48;48.80;;;26.23;;
3791;SDS011;1911;53.768;11.474;2022-09-09T05:48:23;49.97;;;25.37;;
3791;SDS011;1911;53.768;11.474;2022-09-09T05:50:52;50.60;;;27.17;;
3791;SDS011;1911;53.768;11.474;2022-09-09T05:53:19;52.43;;;27.27;;
3791;SDS011;1911;53.768;11.474;2022-09-09T05:55:45;44.83;;;25.87;;
3791;SDS011;1911;53.768;11.474;2022-09-09T05:58:10;41.47;;;26.33;;
3791;SDS011;1911;53.768;11.474;2022-09-09T06:00:36;42.50;;;25.30;;
3791;SDS011;1911;53.768;11.474;2022-09-09T06:03:03;45.20;;;26.27;;
3791;SDS011;1911;53.768;11.474;2022-09-09T06:05:29;43.13;;;24.67;;
3791;SDS011;1911;53.768;11.474;2022-09-09T06:07:55;43.23;;;25.20;;
3791;SDS011;1911;53.768;11.474;2022-09-09T06:10:21;40.20;;;24.83;;
3791;SDS011;1911;53.768;11.474;2022-09-09T06:12:47;41.53;;;24.07;;
3791;SDS011;1911;53.768;11.474;2022-09-09T06:15:12;40.83;;;25.13;;
3791;SDS011;1911;53.768;11.474;2022-09-09T06:17:38;44.73;;;24.23;;
3791;SDS011;1911;53.768;11.474;2022-09-09T06:20:04;34.50;;;21.33;;
3791;SDS011;1911;53.768;11.474;2022-09-09T06:22:30;37.03;;;23.07;;
3791;SDS011;1911;53.768;11.474;2022-09-09T06:24:56;39.63;;;21.87;;
3791;SDS011;1911;53.768;11.474;2022-09-09T06:27:21;33.50;;;22.13;;
3791;SDS011;1911;53.768;11.474;2022-09-09T06:29:47;35.03;;;21.70;;
3791;SDS011;1911;53.768;11.474;2022-09-09T06:32:13;40.93;;;22.77;;
3791;SDS011;1911;53.768;11.474;2022-09-09T06:34:39;32.10;;;19.63;;
3791;SDS011;1911;53.768;11.474;2022-09-09T06:37:04;35.53;;;21.90;;
3791;SDS011;1911;53.768;11.474;2022-09-09T06:39:31;30.27;;;20.40;;
3791;SDS011;1911;53.768;11.474;2022-09-09T06:41:57;27.77;;;19.60;;
3791;SDS011;1911;53.768;11.474;2022-09-09T06:44:23;38.30;;;22.37;;
3791;SDS011;1911;53.768;11.474;2022-09-09T06:46:51;40.37;;;21.10;;
3791;SDS011;1911;53.768;11.474;2022-09-09T06:49:17;31.77;;;20.83;;
3791;SDS011;1911;53.768;11.474;2022-09-09T06:51:43;33.20;;;20.73;;
3791;SDS011;1911;53.768;11.474;2022-09-09T06:54:09;30.97;;;21.00;;
3791;SDS011;1911;53.768;11.474;2022-09-09T06:56:37;29.00;;;21.67;;
3791;SDS011;1911;53.768;11.474;2022-09-09T06:59:07;26.40;;;19.60;;
3791;SDS011;1911;53.768;11.474;2022-09-09T07:01:38;30.83;;;20.90;;
3791;SDS011;1911;53.768;11.474;2022-09-09T07:04:14;28.67;;;20.70;;
3791;SDS011;1911;53.768;11.474;2022-09-09T07:06:40;29.90;;;21.90;;
3791;SDS011;1911;53.768;11.474;2022-09-09T07:09:12;35.67;;;25.50;;
3791;SDS011;1911;53.768;11.474;2022-09-09T07:11:42;32.23;;;25.53;;
3791;SDS011;1911;53.768;11.474;2022-09-09T07:14:10;31.67;;;23.87;;
3791;SDS011;1911;53.768;11.474;2022-09-09T07:16:40;33.50;;;27.47;;
3791;SDS011;1911;53.768;11.474;2022-09-09T07:19:10;31.00;;;26.13;;
3791;SDS011;1911;53.768;11.474;2022-09-09T07:21:36;28.97;;;23.53;;
3791;SDS011;1911;53.768;11.474;2022-09-09T07:24:02;28.57;;;23.47;;
3791;SDS011;1911;53.768;11.474;2022-09-09T07:26:29;28.67;;;23.17;;
3791;SDS011;1911;53.768;11.474;2022-09-09T07:28:56;24.30;;;20.50;;
3791;SDS011;1911;53.768;11.474;2022-09-09T07:31:29;26.43;;;20.13;;
3791;SDS011;1911;53.768;11.474;2022-09-09T07:33:56;24.20;;;20.37;;
3791;SDS011;1911;53.768;11.474;2022-09-09T07:36:25;18.83;;;16.90;;
3791;SDS011;1911;53.768;11.474;2022-09-09T07:38:54;18.90;;;16.23;;
3791;SDS011;1911;53.768;11.474;2022-09-09T07:41:22;17.43;;;15.10;;
3791;SDS011;1911;53.768;11.474;2022-09-09T07:43:49;17.80;;;14.57;;
3791;SDS011;1911;53.768;11.474;2022-09-09T07:46:17;18.07;;;13.70;;
3791;SDS011;1911;53.768;11.474;2022-09-09T07:48:47;17.07;;;15.30;;
3791;SDS011;1911;53.768;11.474;2022-09-09T07:51:16;17.53;;;15.40;;
3791;SDS011;1911;53.768;11.474;2022-09-09T07:53:47;16.50;;;14.83;;
3791;SDS011;1911;53.768;11.474;2022-09-09T07:56:14;14.53;;;13.03;;
3791;SDS011;1911;53.768;11.474;2022-09-09T07:58:42;15.07;;;12.97;;
3791;SDS011;1911;53.768;11.474;2022-09-09T08:01:14;19.70;;;12.90;;
3791;SDS011;1911;53.768;11.474;2022-09-09T08:03:46;15.00;;;13.50;;
3791;SDS011;1911;53.768;11.474;2022-09-09T08:06:17;15.60;;;14.13;;
3791;SDS011;1911;53.768;11.474;2022-09-09T08:08:43;17.70;;;15.90;;
3791;SDS011;1911;53.768;11.474;2022-09-09T08:11:12;16.37;;;14.73;;
3791;SDS011;1911;53.768;11.474;2022-09-09T08:13:39;17.43;;;15.63;;
3791;SDS011;1911;53.768;11.474;2022-09-09T08:16:07;17.00;;;14.83;;
3791;SDS011;1911;53.768;11.474;2022-09-09T08:18:38;19.37;;;17.30;;
3791;SDS011;1911;53.768;11.474;2022-09-09T08:21:05;16.90;;;15.00;;
3791;SDS011;1911;53.768;11.474;2022-09-09T08:23:31;20.43;;;18.23;;
3791;SDS011;1911;53.768;11.474;2022-09-09T08:26:03;18.60;;;16.60;;
3791;SDS011;1911;53.768;11.474;2022-09-09T08:28:29;20.93;;;18.43;;
3791;SDS011;1911;53.768;11.474;2022-09-09T08:30:56;20.00;;;17.93;;
3791;SDS011;1911;53.768;11.474;2022-09-09T08:33:29;21.10;;;18.37;;
3791;SDS011;1911;53.768;11.474;2022-09-09T08:35:55;21.03;;;16.67;;
3791;SDS011;1911;53.768;11.474;2022-09-09T08:38:21;19.00;;;17.00;;
3791;SDS011;1911;53.768;11.474;2022-09-09T08:40:46;18.70;;;16.00;;
3791;SDS011;1911;53.768;11.474;2022-09-09T08:43:18;17.07;;;15.37;;
3791;SDS011;1911;53.768;11.474;2022-09-09T08:45:50;17.30;;;15.50;;
3791;SDS011;1911;53.768;11.474;2022-09-09T08:51:35;17.43;;;15.63;;
3791;SDS011;1911;53.768;11.474;2022-09-09T08:54:02;17.83;;;15.93;;
3791;SDS011;1911;53.768;11.474;2022-09-09T08:56:30;16.00;;;14.30;;
3791;SDS011;1911;53.768;11.474;2022-09-09T08:58:56;17.83;;;14.70;;
3791;SDS011;1911;53.768;11.474;2022-09-09T09:07:25;16.93;;;13.37;;
3791;SDS011;1911;53.768;11.474;2022-09-09T09:12:44;13.83;;;11.70;;
3791;SDS011;1911;53.768;11.474;2022-09-09T09:15:25;10.13;;;9.20;;
3791;SDS011;1911;53.768;11.474;2022-09-09T09:17:55;12.10;;;9.50;;
3791;SDS011;1911;53.768;11.474;2022-09-09T09:20:42;7.37;;;6.70;;
3791;SDS011;1911;53.768;11.474;2022-09-09T11:01:15;6.60;;;4.40;;
3791;SDS011;1911;53.768;11.474;2022-09-09T11:03:55;6.17;;;3.50;;
3791;SDS011;1911;53.768;11.474;2022-09-09T11:06:31;4.40;;;3.10;;
3791;SDS011;1911;53.768;11.474;2022-09-09T11:09:01;5.00;;;3.60;;
3791;SDS011;1911;53.768;11.474;2022-09-09T11:14:26;5.30;;;2.63;;
3791;SDS011;1911;53.768;11.474;2022-09-09T11:17:01;4.20;;;2.27;;
3791;SDS011;1911;53.768;11.474;2022-09-09T11:19:35;2.90;;;2.57;;
3791;SDS011;1911;53.768;11.474;2022-09-09T11:24:41;3.80;;;2.03;;
3791;SDS011;1911;53.768;11.474;2022-09-09T11:27:17;5.10;;;2.67;;
3791;SDS011;1911;53.768;11.474;2022-09-09T11:40:20;2.90;;;1.60;;
3791;SDS011;1911;53.768;11.474;2022-09-09T11:42:48;2.87;;;1.47;;
3791;SDS011;1911;53.768;11.474;2022-09-09T11:45:26;2.33;;;1.23;;
3791;SDS011;1911;53.768;11.474;2022-09-09T11:47:58;2.60;;;1.70;;
3791;SDS011;1911;53.768;11.474;2022-09-09T11:52:51;1.80;;;1.33;;
3791;SDS011;1911;53.768;11.474;2022-09-09T11:55:29;2.47;;;1.10;;
3791;SDS011;1911;53.768;11.474;2022-09-09T12:03:02;1.97;;;1.40;;
3791;SDS011;1911;53.768;11.474;2022-09-09T12:05:39;2.80;;;1.30;;
3791;SDS011;1911;53.768;11.474;2022-09-09T12:08:09;2.30;;;1.30;;
3791;SDS011;1911;53.768;11.474;2022-09-09T12:10:38;3.23;;;1.33;;
3791;SDS011;1911;53.768;11.474;2022-09-09T12:13:18;1.80;;;1.30;;
3791;SDS011;1911;53.768;11.474;2022-09-09T12:15:54;1.80;;;1.30;;
3791;SDS011;1911;53.768;11.474;2022-09-09T12:18:22;4.97;;;1.60;;
3791;SDS011;1911;53.768;11.474;2022-09-09T12:26:36;5.73;;;1.40;;
3791;SDS011;1911;53.768;11.474;2022-09-09T12:34:17;3.03;;;1.70;;
3791;SDS011;1911;53.768;11.474;2022-09-09T12:37:06;3.30;;;1.90;;
3791;SDS011;1911;53.768;11.474;2022-09-09T12:40:14;2.63;;;1.40;;
3791;SDS011;1911;53.768;11.474;2022-09-09T12:43:02;2.03;;;1.37;;
3791;SDS011;1911;53.768;11.474;2022-09-09T12:45:41;2.80;;;1.70;;
3791;SDS011;1911;53.768;11.474;2022-09-09T12:48:08;2.63;;;1.40;;
3791;SDS011;1911;53.768;11.474;2022-09-09T12:50:50;4.07;;;1.37;;
3791;SDS011;1911;53.768;11.474;2022-09-09T12:53:24;2.03;;;1.60;;
3791;SDS011;1911;53.768;11.474;2022-09-09T12:56:38;2.53;;;1.67;;
3791;SDS011;1911;53.768;11.474;2022-09-09T12:58:48;4.37;;;1.77;;
3791;SDS011;1911;53.768;11.474;2022-09-09T13:01:21;3.80;;;1.90;;
3791;SDS011;1911;53.768;11.474;2022-09-09T13:03:48;2.07;;;1.57;;
3791;SDS011;1911;53.768;11.474;2022-09-09T13:06:24;3.67;;;1.70;;
3791;SDS011;1911;53.768;11.474;2022-09-09T13:08:52;2.80;;;1.50;;
3791;SDS011;1911;53.768;11.474;2022-09-09T13:11:23;2.30;;;1.70;;
3791;SDS011;1911;53.768;11.474;2022-09-09T13:13:56;3.20;;;1.23;;
3791;SDS011;1911;53.768;11.474;2022-09-09T13:16:26;2.27;;;1.40;;
3791;SDS011;1911;53.768;11.474;2022-09-09T13:18:57;6.07;;;1.73;;
3791;SDS011;1911;53.768;11.474;2022-09-09T13:21:32;1.90;;;1.50;;
3791;SDS011;1911;53.768;11.474;2022-09-09T13:24:03;3.47;;;1.37;;
3791;SDS011;1911;53.768;11.474;2022-09-09T13:27:00;3.67;;;1.40;;
3791;SDS011;1911;53.768;11.474;2022-09-09T13:29:27;3.07;;;1.90;;
3791;SDS011;1911;53.768;11.474;2022-09-09T13:31:53;3.60;;;1.50;;
3791;SDS011;1911;53.768;11.474;2022-09-09T13:34:29;2.73;;;1.13;;
3791;SDS011;1911;53.768;11.474;2022-09-09T13:37:07;4.03;;;1.60;;
3791;SDS011;1911;53.768;11.474;2022-09-09T13:39:50;5.40;;;1.90;;
3791;SDS011;1911;53.768;11.474;2022-09-09T13:42:22;3.10;;;1.77;;
3791;SDS011;1911;53.768;11.474;2022-09-09T13:44:56;3.97;;;1.77;;
3791;SDS011;1911;53.768;11.474;2022-09-09T13:47:45;3.80;;;1.40;;
3791;SDS011;1911;53.768;11.474;2022-09-09T13:50:34;3.43;;;1.87;;
3791;SDS011;1911;53.768;11.474;2022-09-09T13:53:20;4.77;;;2.70;;
3791;SDS011;1911;53.768;11.474;2022-09-09T13:55:48;2.50;;;1.60;;
3791;SDS011;1911;53.768;11.474;2022-09-09T13:58:15;6.20;;;1.87;;
3791;SDS011;1911;53.768;11.474;2022-09-09T14:00:43;3.63;;;2.10;;
3791;SDS011;1911;53.768;11.474;2022-09-09T14:03:09;2.67;;;1.50;;
3791;SDS011;1911;53.768;11.474;2022-09-09T14:05:35;4.90;;;1.87;;
3791;SDS011;1911;53.768;11.474;2022-09-09T14:08:03;3.87;;;2.23;;
3791;SDS011;1911;53.768;11.474;2022-09-09T14:10:30;3.40;;;1.80;;
3791;SDS011;1911;53.768;11.474;2022-09-09T14:12:56;4.80;;;2.07;;
3791;SDS011;1911;53.768;11.474;2022-09-09T14:15:21;3.60;;;1.83;;
3791;SDS011;1911;53.768;11.474;2022-09-09T14:17:47;2.20;;;2.00;;
3791;SDS011;1911;53.768;11.474;2022-09-09T14:20:13;3.43;;;2.23;;
3791;SDS011;1911;53.768;11.474;2022-09-09T14:22:40;2.43;;;2.00;;
3791;SDS011;1911;53.768;11.474;2022-09-09T14:25:06;4.63;;;3.13;;
3791;SDS011;1911;53.768;11.474;2022-09-09T14:27:32;4.73;;;3.00;;
3791;SDS011;1911;53.768;11.474;2022-09-09T14:29:58;3.90;;;3.07;;
3791;SDS011;1911;53.768;11.474;2022-09-09T14:32:25;4.87;;;4.07;;
3791;SDS011;1911;53.768;11.474;2022-09-09T14:34:51;6.37;;;4.47;;
3791;SDS011;1911;53.768;11.474;2022-09-09T14:37:17;6.80;;;4.00;;
3791;SDS011;1911;53.768;11.474;2022-09-09T14:39:43;6.87;;;5.00;;
3791;SDS011;1911;53.768;11.474;2022-09-09T14:42:09;7.93;;;5.90;;
3791;SDS011;1911;53.768;11.474;2022-09-09T14:44:36;9.43;;;5.90;;
3791;SDS011;1911;53.768;11.474;2022-09-09T14:47:03;7.23;;;5.93;;
3791;SDS011;1911;53.768;11.474;2022-09-09T14:49:33;6.63;;;5.23;;
3791;SDS011;1911;53.768;11.474;2022-09-09T14:52:02;7.27;;;4.87;;
3791;SDS011;1911;53.768;11.474;2022-09-09T14:54:29;6.77;;;3.70;;
3791;SDS011;1911;53.768;11.474;2022-09-09T14:56:55;6.67;;;4.50;;
3791;SDS011;1911;53.768;11.474;2022-09-09T14:59:21;9.53;;;4.80;;
3791;SDS011;1911;53.768;11.474;2022-09-09T15:01:47;6.13;;;5.53;;
3791;SDS011;1911;53.768;11.474;2022-09-09T15:04:13;8.30;;;5.70;;
3791;SDS011;1911;53.768;11.474;2022-09-09T15:06:41;9.70;;;7.17;;
3791;SDS011;1911;53.768;11.474;2022-09-09T15:09:09;11.77;;;6.50;;
3791;SDS011;1911;53.768;11.474;2022-09-09T15:11:36;7.37;;;6.57;;
3791;SDS011;1911;53.768;11.474;2022-09-09T15:14:03;6.60;;;5.50;;
3791;SDS011;1911;53.768;11.474;2022-09-09T15:16:30;9.23;;;5.70;;
3791;SDS011;1911;53.768;11.474;2022-09-09T15:18:57;7.53;;;5.77;;
3791;SDS011;1911;53.768;11.474;2022-09-09T15:21:25;9.47;;;5.97;;
3791;SDS011;1911;53.768;11.474;2022-09-09T15:23:52;7.43;;;4.93;;
3791;SDS011;1911;53.768;11.474;2022-09-09T15:26:19;6.40;;;4.00;;
3791;SDS011;1911;53.768;11.474;2022-09-09T15:28:46;7.70;;;3.00;;
3791;SDS011;1911;53.768;11.474;2022-09-09T15:33:40;4.73;;;2.50;;
3791;SDS011;1911;53.768;11.474;2022-09-09T15:38:43;2.87;;;2.40;;
3791;SDS011;1911;53.768;11.474;2022-09-09T15:41:09;3.90;;;2.23;;
3791;SDS011;1911;53.768;11.474;2022-09-09T15:43:36;3.83;;;2.20;;
3791;SDS011;1911;53.768;11.474;2022-09-09T15:48:42;3.30;;;2.27;;
3791;SDS011;1911;53.768;11.474;2022-09-09T15:51:09;4.17;;;2.63;;
3791;SDS011;1911;53.768;11.474;2022-09-09T15:53:35;7.70;;;2.97;;
3791;SDS011;1911;53.768;11.474;2022-09-09T15:56:05;3.33;;;1.60;;
3791;SDS011;1911;53.768;11.474;2022-09-09T15:58:31;2.80;;;1.80;;
3791;SDS011;1911;53.768;11.474;2022-09-09T16:01:07;2.97;;;1.60;;
3791;SDS011;1911;53.768;11.474;2022-09-09T16:03:38;3.63;;;1.53;;
3791;SDS011;1911;53.768;11.474;2022-09-09T16:06:10;2.97;;;1.10;;
3791;SDS011;1911;53.768;11.474;2022-09-09T16:08:37;3.40;;;1.30;;
3791;SDS011;1911;53.768;11.474;2022-09-09T16:11:10;3.10;;;1.40;;
3791;SDS011;1911;53.768;11.474;2022-09-09T16:13:39;2.70;;;1.30;;
3791;SDS011;1911;53.768;11.474;2022-09-09T16:27:03;3.40;;;1.37;;
3791;SDS011;1911;53.768;11.474;2022-09-09T16:33:46;3.60;;;2.00;;
3791;SDS011;1911;53.768;11.474;2022-09-09T16:36:13;2.23;;;1.50;;
3791;SDS011;1911;53.768;11.474;2022-09-09T16:38:41;3.27;;;1.60;;
3791;SDS011;1911;53.768;11.474;2022-09-09T16:41:08;5.87;;;1.53;;
3791;SDS011;1911;53.768;11.474;2022-09-09T16:43:34;1.83;;;1.63;;
3791;SDS011;1911;53.768;11.474;2022-09-09T16:46:01;6.47;;;1.57;;
3791;SDS011;1911;53.768;11.474;2022-09-09T16:48:40;3.30;;;2.10;;
3791;SDS011;1911;53.768;11.474;2022-09-09T16:51:07;3.57;;;1.80;;
3791;SDS011;1911;53.768;11.474;2022-09-09T16:53:36;2.63;;;1.87;;
3791;SDS011;1911;53.768;11.474;2022-09-09T16:56:05;4.00;;;2.03;;
3791;SDS011;1911;53.768;11.474;2022-09-09T16:58:33;4.27;;;2.23;;
3791;SDS011;1911;53.768;11.474;2022-09-09T17:00:59;2.93;;;1.60;;
3791;SDS011;1911;53.768;11.474;2022-09-09T17:03:27;6.30;;;2.20;;
3791;SDS011;1911;53.768;11.474;2022-09-09T17:05:53;7.23;;;2.47;;
3791;SDS011;1911;53.768;11.474;2022-09-09T17:08:18;6.80;;;2.33;;
3791;SDS011;1911;53.768;11.474;2022-09-09T17:10:44;5.13;;;2.00;;
3791;SDS011;1911;53.768;11.474;2022-09-09T17:13:10;3.93;;;2.33;;
3791;SDS011;1911;53.768;11.474;2022-09-09T17:15:40;3.83;;;2.03;;
3791;SDS011;1911;53.768;11.474;2022-09-09T17:18:07;5.60;;;2.50;;
3791;SDS011;1911;53.768;11.474;2022-09-09T17:20:38;3.43;;;1.73;;
3791;SDS011;1911;53.768;11.474;2022-09-09T17:23:05;3.20;;;2.23;;
3791;SDS011;1911;53.768;11.474;2022-09-09T17:25:31;4.93;;;2.00;;
3791;SDS011;1911;53.768;11.474;2022-09-09T17:27:57;3.77;;;1.97;;
3791;SDS011;1911;53.768;11.474;2022-09-09T17:30:23;2.60;;;1.93;;
3791;SDS011;1911;53.768;11.474;2022-09-09T17:32:49;3.37;;;2.10;;
3791;SDS011;1911;53.768;11.474;2022-09-09T17:35:15;5.00;;;2.10;;
3791;SDS011;1911;53.768;11.474;2022-09-09T17:37:41;6.10;;;1.97;;
3791;SDS011;1911;53.768;11.474;2022-09-09T17:40:06;4.40;;;2.00;;
3791;SDS011;1911;53.768;11.474;2022-09-09T17:42:33;4.23;;;1.80;;
3791;SDS011;1911;53.768;11.474;2022-09-09T17:45:00;4.03;;;2.20;;
3791;SDS011;1911;53.768;11.474;2022-09-09T17:47:26;3.33;;;1.40;;
3791;SDS011;1911;53.768;11.474;2022-09-09T17:49:53;4.93;;;1.50;;
3791;SDS011;1911;53.768;11.474;2022-09-09T17:52:19;2.30;;;1.70;;
3791;SDS011;1911;53.768;11.474;2022-09-09T17:54:44;1.43;;;1.30;;
3791;SDS011;1911;53.768;11.474;2022-09-09T17:57:10;3.13;;;1.40;;
3791;SDS011;1911;53.768;11.474;2022-09-09T17:59:36;4.10;;;1.80;;
3791;SDS011;1911;53.768;11.474;2022-09-09T18:02:02;1.90;;;1.63;;
3791;SDS011;1911;53.768;11.474;2022-09-09T18:04:29;3.53;;;1.73;;
3791;SDS011;1911;53.768;11.474;2022-09-09T18:06:56;2.73;;;1.93;;
3791;SDS011;1911;53.768;11.474;2022-09-09T18:09:23;3.17;;;1.67;;
3791;SDS011;1911;53.768;11.474;2022-09-09T18:11:54;6.13;;;2.10;;
3791;SDS011;1911;53.768;11.474;2022-09-09T18:14:26;3.10;;;1.40;;
3791;SDS011;1911;53.768;11.474;2022-09-09T18:16:55;2.17;;;1.70;;
3791;SDS011;1911;53.768;11.474;2022-09-09T18:19:22;4.07;;;2.20;;
3791;SDS011;1911;53.768;11.474;2022-09-09T18:21:50;3.20;;;1.80;;
3791;SDS011;1911;53.768;11.474;2022-09-09T22:17:56;2.90;;;2.27;;
3791;SDS011;1911;53.768;11.474;2022-09-09T22:21:00;2.50;;;2.30;;
3791;SDS011;1911;53.768;11.474;2022-09-09T22:24:05;3.87;;;2.53;;
3791;SDS011;1911;53.768;11.474;2022-09-09T22:26:31;5.70;;;2.10;;
3791;SDS011;1911;53.768;11.474;2022-09-09T22:28:59;3.97;;;2.50;;